Boulder City, Nevada Weather observations

Data are for observation ending at time listed.
 Day   Time    Ave.   Ave.  Ave.  Vector   Max.   Stn.    Total    Solar   Ave.  
  of    of     Air    Rel.  Wind   Wind    Wind   Baro.  Precip.   Rad.    Soil  
Year   Day     Temp.  Hum.  Speed  Dir.    Gust   Pres.                    Temp. 
2016   (PST)    F      %     mph   deg.    mph     mb.     in.     W/m2     F   
------------------------------------------------------------------------------
 176    0:00   91.3    10    4.8   213      8.3   927.7    0.00       0    98.5
 176    0:10   90.8    10    4.3   205      8.0   927.7    0.00       0    98.4
 176    0:20   89.4    10    4.3   177      6.4   927.6    0.00       0    98.2
 176    0:30   88.1    11    3.5   185      6.5   927.6    0.00       0    98.1
 176    0:40   87.6    11    2.9   197      5.8   927.6    0.00       0    98.0
 176    0:50   87.4    11    3.5   226      5.8   927.5    0.00       0    97.9
 176    1:00   87.0    11    2.5   204      4.8   927.4    0.00       0    97.7
 176    1:10   86.2    11    2.8   198      4.4   927.4    0.00       0    97.6
 176    1:20   85.4    12    3.2   190      5.2   927.4    0.00       0    97.5
 176    1:30   86.0    11    4.3   231      6.4   927.3    0.00       0    97.4
 176    1:40   87.7    11    4.3   216      6.3   927.2    0.00       0    97.2
 176    1:50   87.9    11    4.6   200     10.2   927.3    0.00       0    97.1
 176    2:00   88.7    11    5.3   182     11.9   927.4    0.00       0    97.0
 176    2:10   88.5    11    4.7   186      8.1   927.5    0.00       0    96.8
 176    2:20   87.8    11    4.1   203      7.6   927.5    0.00       0    96.7
 176    2:30   87.8    11    4.4   216      7.3   927.5    0.00       0    96.5
 176    2:40   88.7    11    5.7   185     10.2   927.5    0.00       0    96.4
 176    2:50   89.0    11    5.6   177     14.9   927.5    0.00       0    96.3
 176    3:00   88.9    11    5.6   171     12.1   927.5    0.00       0    96.2
 176    3:10   87.6    11    3.5   213      6.1   927.5    0.00       0    96.0
 176    3:20   86.6    12    3.4   210      5.3   927.5    0.00       0    95.9
 176    3:30   86.5    12    3.3   217      5.4   927.5    0.00       0    95.8
 176    3:40   86.3    13    3.0   190      5.7   927.6    0.00       0    95.7
 176    3:50   83.9    14    3.4   179      6.1   927.5    0.00       0    95.6
 176    4:00   83.5    14    3.6   186      6.5   927.5    0.00       0    95.5
 176    4:10   86.0    13    5.4   176     11.4   927.5    0.00       0    95.4
 176    4:20   87.3    12    5.4   179     11.4   927.5    0.00       0    95.3
 176    4:30   86.4    12    3.4   199      6.9   927.7    0.00       4    95.2
 176    4:40   85.6    12    3.2   212      5.8   927.9    0.00      10    95.1
 176    4:50   85.1    13    2.5   208      3.9   928.0    0.00      26    95.0
 176    5:00   84.4    13    2.4   216      5.2   928.0    0.00      39    94.9
 176    5:10   84.4    14    2.9   226      4.3   928.0    0.00      33    94.7
 176    5:20   84.4    14    1.8   222      3.7   928.1    0.00      38    94.6
 176    5:30   84.2    15    1.8   206      3.0   928.0    0.00      42    94.5
 176    5:40   84.7    14    2.2   172      6.0   928.0    0.00     118    94.4
 176    5:50   86.2    14    3.6   156      7.5   928.1    0.00     164    94.3
 176    6:00   86.3    14    1.7   159      5.3   928.3    0.00      77    94.2
 176    6:10   87.1    14    1.9   180      4.5   928.5    0.00     255    94.1
 176    6:20   88.1    14    2.5   152      6.2   928.6    0.00     169    94.0
 176    6:30   89.0    13    1.6   156      5.3   928.8    0.00     220    94.0
 176    6:40   88.6    14    2.7   210      8.9   929.0    0.00     352    93.9
 176    6:50   88.8    14    4.2   187      9.3   929.3    0.00     387    93.8
 176    7:00   89.3    14    4.8   183      8.3   929.4    0.00     420    93.8
 176    7:10   90.2    13    4.8   173      9.8   929.5    0.00     447    93.7
 176    7:20   90.9    12    3.5   158      8.6   929.7    0.00     474    93.7
 176    7:30   91.6    11    5.1   169     12.0   929.9    0.00     501    93.8
 176    7:40   92.0    10    5.5   162     12.2   929.9    0.00     535    93.8
 176    7:50   92.6    11    4.9   144     12.9   929.9    0.00     574    93.8
 176    8:00   93.4    11    6.0   146     13.2   930.0    0.00     605    93.9
 176    8:10   93.2    11    4.7   145     11.8   930.1    0.00     632    94.0
 176    8:20   93.9    11    6.6   158     18.3   930.1    0.00     659    94.1
 176    8:30   94.5    10    7.6   169     13.9   930.1    0.00     687    94.2
 176    8:40   94.8    10    7.6   159     17.0   930.2    0.00     710    94.3
 176    8:50   95.2    10    6.5   156     12.6   930.1    0.00     731    94.4
 176    9:00   95.5    10    8.0   167     14.5   930.1    0.00     680    94.6
 176    9:10   96.2    10    6.7   159     17.8   930.1    0.00     662    94.7
 176    9:20   96.3     9    6.5   156     15.3   930.1    0.00     656    94.9
 176    9:30   96.9     9    7.8   146     16.8   930.1    0.00     731    95.0
 176    9:40   97.6     9    7.3   147     13.4   930.1    0.00     775    95.3
 176    9:50   98.2     9    6.7   157     15.0   930.1    0.00     762    95.5
 176   10:00   98.2     9    6.7   163     14.0   930.1    0.00     799    95.7
 176   10:10   98.9     9    6.1   157     12.0   930.1    0.00     823    96.0
 176   10:20   99.1     9    7.6   153     15.9   930.1    0.00     845    96.2
 176   10:30   99.2     9    7.7   157     17.5   930.2    0.00     883    96.5
 176   10:40   99.5     9    5.6   147     13.0   930.2    0.00     891    96.7
 176   10:50  100.3     9    6.2   170     13.7   930.1    0.00     894    97.0
 176   11:00  100.6     8    7.5   167     14.2   930.0    0.00     934    97.3
 176   11:10  101.1     8    6.4   167     14.5   929.9    0.00     941    97.6
 176   11:20  101.6     8    6.3   148     14.1   929.9    0.00     935    97.8
 176   11:30  102.3     8    5.8   158     14.5   929.8    0.00     946    98.2
 176   11:40  101.6     8    7.1   166     17.1   929.7    0.00     948    98.5
 176   11:50  102.3     8    5.2   133     11.5   929.6    0.00     954    98.8
 176   12:00  102.6     8    6.2   153     14.0   929.4    0.00     952    99.1
 176   12:10  103.2     8    7.3   142     19.9   929.3    0.00     957    99.4
 176   12:20  103.2     8    5.9   145     15.1   929.2    0.00     946    99.7
 176   12:30  103.5     8    7.5   118     14.8   929.1    0.00     935    100.0
 176   12:40  103.8     8    5.8   140     13.3   928.9    0.00     927    100.4
 176   12:50  104.4     7    7.0   128     16.5   928.8    0.00     919    100.7
 176   13:00  105.4     7    6.2   121     13.4   928.7    0.00     911    101.0
 176   13:10  105.5     7    5.6   121     15.6   928.7    0.00     898    101.3
 176   13:20  105.6     7    5.6   158     12.9   928.6    0.00     889    101.5
 176   13:30  106.2     7    4.6   160     11.5   928.4    0.00     881    101.8
 176   13:40  106.4     7    5.7   151     16.6   928.3    0.00     870    102.1
 176   13:50  106.1     6    9.8   162     20.5   928.2    0.00     842    102.4
 176   14:00  106.7     6    8.6   143     19.1   928.1    0.00     825    102.6
 176   14:10  107.5     6    6.4   142     17.5   928.0    0.00     816    102.9
 176   14:20  106.7     6    6.6   103     16.4   928.0    0.00     793    103.1
 176   14:30  107.2     6    7.2   114     20.0   927.8    0.00     772    103.4
 176   14:40  108.1     6    6.5   170     25.9   927.6    0.00     759    103.6
 176   14:50  108.6     4    7.5   212     13.7   927.6    0.00     736    103.8
 176   15:00  108.0     4    9.6   184     20.9   927.5    0.00     714    103.9
 176   15:10  107.8     4    9.3   199     17.3   927.5    0.00     682    104.1
 176   15:20  107.8     4    8.7   168     15.4   927.4    0.00     656    104.1
 176   15:30  107.9     4    7.9   174     17.8   927.3    0.00     628    104.2
 176   15:40  107.5     5    6.7   214     11.3   927.1    0.00     593    104.1
 176   15:50  107.4     5    7.6   184     13.6   927.0    0.00     561    104.1
 176   16:00  107.0     5   10.0   174     20.7   926.9    0.00     529    104.1
 176   16:10  106.8     5    8.1   205     14.9   926.8    0.00     497    104.1
 176   16:20  106.3     6    7.5   201     14.0   926.6    0.00     464    104.1
 176   16:30  106.4     6    8.4   183     15.6   926.5    0.00     429    104.1
 176   16:40  106.3     5    8.9   190     17.5   926.3    0.00     398    104.1
 176   16:50  105.7     6    7.6   212     13.2   926.2    0.00     365    104.1
 176   17:00  105.4     6    7.8   196     17.3   926.2    0.00     326    104.1
 176   17:10  105.2     6    6.7   198     15.2   926.1    0.00     297    104.1
 176   17:20  105.0     6    7.6   193     14.8   926.1    0.00     267    104.1
 176   17:30  104.5     6    7.3   190     14.6   926.1    0.00     233    104.1
 176   17:40  103.8     6    6.9   174     12.8   926.0    0.00     202    104.0
 176   17:50  103.6     6    7.0   184     15.6   926.0    0.00     171    103.9
 176   18:00  103.0     6    8.6   176     16.3   926.0    0.00     143    103.8
 176   18:10  102.7     6    7.8   193     14.4   926.0    0.00     111    103.7
 176   18:20  102.1     6    6.6   188     12.6   926.1    0.00      59    103.5
 176   18:30  101.4     7    7.1   177     12.8   926.1    0.00      22    103.3
 176   18:40  101.0     6    8.5   158     17.0   926.1    0.00      17    103.2
 176   18:50  100.8     6    5.5   166     10.0   926.2    0.00      11    103.0
 176   19:00   99.9     7    5.4   165     10.3   926.2    0.00       7    102.9
 176   19:10   99.3     7    6.4   163     15.3   926.2    0.00       3    102.8
 176   19:20   99.1     7    7.7   160     13.0   926.2    0.00       1    102.5
 176   19:30   98.7     7    6.0   162     10.3   926.3    0.00       0    102.4
 176   19:40   98.0     8    5.4   176      9.3   926.4    0.00       0    102.2
 176   19:50   97.2     8    4.7   172      8.6   926.4    0.00       0    102.0
 176   20:00   96.6     8    5.5   168     10.7   926.5    0.00       0    101.9
 176   20:10   96.1     8    5.1   171     10.0   926.5    0.00       0    101.7
 176   20:20   95.3     8    3.3   212      6.9   926.7    0.00       0    101.5
 176   20:30   93.7     8    2.5   228      4.4   926.7    0.00       0    101.3
 176   20:40   92.9     9    2.8   226      4.3   926.8    0.00       0    101.2
 176   20:50   92.7     8    3.4   236      6.4   926.8    0.00       0    101.0
 176   21:00   93.6     8    5.3   235      8.2   926.8    0.00       0    100.9
 176   21:10   93.3     9    4.5   229      6.6   926.8    0.00       0    100.7
 176   21:20   92.7     9    4.7   227      6.7   926.9    0.00       0    100.5
 176   21:30   92.2     9    4.5   218      6.8   926.9    0.00       0    100.3
 176   21:40   92.1     9    4.9   209      8.3   926.9    0.00       0    100.1
 176   21:50   91.9     9    5.4   206      9.7   926.9    0.00       0    99.9
 176   22:00   91.6     9    5.3   226      8.0   927.0    0.00       0    99.8
 176   22:10   90.9     9    6.1   241     10.1   927.0    0.00       0    99.6
 176   22:20   90.9     9    6.2   229      9.1   927.0    0.00       0    99.4
 176   22:30   90.1     9    5.7   210      9.6   927.0    0.00       0    99.2
 176   22:40   89.9     9    5.4   220      9.1   927.1    0.00       0    99.1
 176   22:50   90.1     8    6.5   235      9.9   927.1    0.00       0    98.9
 176   23:00   89.6     8    5.6   228      9.0   927.1    0.00       0    98.8
 176   23:10   89.0     9    4.5   226      6.6   927.1    0.00       0    98.6
 176   23:20   89.6     8    5.3   233      9.0   927.2    0.00       0    98.5

Return to Boulder City, Nevada graphs page.


Western Regional Climate Center,wrcc@dri.edu